createdAt,value
2019-03-23T00:00:19.895Z,8.43
2019-03-23T00:02:48.342Z,7.77
2019-03-23T00:05:16.741Z,8.07
2019-03-23T00:07:45.149Z,7.83
2019-03-23T00:10:14.216Z,7.97
2019-03-23T00:12:42.632Z,7.93
2019-03-23T00:15:11.878Z,7.93
2019-03-23T00:17:40.296Z,7.90
2019-03-23T00:20:09.565Z,6.93
2019-03-23T00:22:37.984Z,14.47
2019-03-23T00:25:07.332Z,10.47
2019-03-23T00:27:35.747Z,8.80
2019-03-23T00:30:10.146Z,7.30
2019-03-23T00:32:38.555Z,7.23
2019-03-23T00:35:07.610Z,7.73
2019-03-23T00:37:36.255Z,6.97
2019-03-23T00:40:07.363Z,7.43
2019-03-23T00:42:35.769Z,7.13
2019-03-23T00:45:05.685Z,7.07
2019-03-23T00:47:34.100Z,7.30
2019-03-23T00:50:02.519Z,7.10
2019-03-23T00:52:30.939Z,7.00
2019-03-23T00:54:59.340Z,6.97
2019-03-23T00:57:27.759Z,6.90
2019-03-23T00:59:56.153Z,6.83
2019-03-23T01:02:24.576Z,7.53
2019-03-23T01:04:52.963Z,7.30
2019-03-23T01:07:21.388Z,7.20
2019-03-23T01:09:49.774Z,7.30
2019-03-23T01:12:18.196Z,6.57
2019-03-23T01:14:46.596Z,6.93
2019-03-23T01:17:14.994Z,6.87
2019-03-23T01:19:43.410Z,7.20
2019-03-23T01:22:11.809Z,6.80
2019-03-23T01:24:40.223Z,7.50
2019-03-23T01:27:08.630Z,6.70
2019-03-23T01:29:37.111Z,6.83
2019-03-23T01:32:05.513Z,6.97
2019-03-23T01:34:33.927Z,6.90
2019-03-23T01:37:03.129Z,7.30
2019-03-23T01:39:31.729Z,7.07
2019-03-23T01:42:00.124Z,7.27
2019-03-23T01:44:28.556Z,6.90
2019-03-23T01:46:56.956Z,6.97
2019-03-23T01:49:25.407Z,7.03
2019-03-23T01:51:55.136Z,7.57
2019-03-23T01:54:23.531Z,7.13
2019-03-23T01:56:51.921Z,6.97
2019-03-23T01:59:20.338Z,7.17
2019-03-23T02:01:48.744Z,7.27
2019-03-23T02:04:17.162Z,7.17
2019-03-23T02:06:45.556Z,7.57
2019-03-23T02:09:13.959Z,7.67
2019-03-23T02:11:42.376Z,7.30
2019-03-23T02:14:10.787Z,7.60
2019-03-23T02:16:39.187Z,7.50
2019-03-23T02:19:07.612Z,7.00
2019-03-23T02:21:36.030Z,7.40
2019-03-23T02:24:04.452Z,6.93
2019-03-23T02:26:32.851Z,7.17
2019-03-23T02:29:01.278Z,7.77
2019-03-23T02:31:29.679Z,7.40
2019-03-23T02:33:58.103Z,7.03
2019-03-23T02:36:26.478Z,7.53
2019-03-23T02:38:54.895Z,6.77
2019-03-23T02:41:23.308Z,7.27
2019-03-23T02:43:51.708Z,6.90
2019-03-23T02:46:20.131Z,7.60
2019-03-23T02:48:48.500Z,7.60
2019-03-23T02:51:16.932Z,8.30
2019-03-23T02:53:45.328Z,7.73
2019-03-23T02:56:13.749Z,7.33
2019-03-23T02:58:42.127Z,7.43
2019-03-23T03:01:10.544Z,8.20
2019-03-23T03:03:38.947Z,7.43
2019-03-23T03:06:07.339Z,8.33
2019-03-23T03:08:36.609Z,8.17
2019-03-23T03:11:04.996Z,7.90
2019-03-23T03:13:33.399Z,7.73
2019-03-23T03:16:01.788Z,6.97
2019-03-23T03:18:30.203Z,6.80
2019-03-23T03:20:58.601Z,7.40
2019-03-23T03:23:27.003Z,7.93
2019-03-23T03:25:55.400Z,7.67
2019-03-23T03:28:23.822Z,7.10
2019-03-23T03:30:52.201Z,7.17
2019-03-23T03:33:20.624Z,7.10
2019-03-23T03:35:49.097Z,8.07
2019-03-23T03:38:17.517Z,7.93
2019-03-23T03:40:45.906Z,7.90
2019-03-23T03:43:14.323Z,7.60
2019-03-23T03:45:42.734Z,7.33
2019-03-23T03:48:11.132Z,7.93
2019-03-23T03:50:39.532Z,7.30
2019-03-23T03:53:07.959Z,7.43
2019-03-23T03:55:36.347Z,7.17
2019-03-23T03:58:04.768Z,7.60
2019-03-23T04:00:33.244Z,7.57
2019-03-23T04:03:01.678Z,8.13
2019-03-23T04:05:30.073Z,7.17
2019-03-23T04:08:10.517Z,7.40
2019-03-23T04:10:28.611Z,7.37
2019-03-23T04:12:57.014Z,7.17
2019-03-23T04:15:25.421Z,7.40
2019-03-23T04:17:53.825Z,7.00
2019-03-23T04:20:22.257Z,6.87
2019-03-23T04:22:50.675Z,6.80
2019-03-23T04:25:19.131Z,7.17
2019-03-23T04:27:47.516Z,7.03
2019-03-23T04:30:16.175Z,6.90
2019-03-23T04:32:44.571Z,6.87
2019-03-23T04:35:13.176Z,7.10
2019-03-23T04:37:41.562Z,7.10
2019-03-23T04:40:11.504Z,7.20
2019-03-23T04:42:39.898Z,7.20
2019-03-23T04:45:09.843Z,7.73
2019-03-23T04:47:38.230Z,7.57
2019-03-23T04:50:09.270Z,7.53
2019-03-23T04:52:37.676Z,7.10
2019-03-23T04:55:11.648Z,7.53
2019-03-23T04:57:40.863Z,7.47
2019-03-23T05:00:12.203Z,7.03
2019-03-23T05:02:40.619Z,8.83
2019-03-23T05:05:09.877Z,8.00
2019-03-23T05:07:38.270Z,9.30
2019-03-23T05:10:07.924Z,10.27
2019-03-23T05:12:36.572Z,11.00
2019-03-23T05:15:07.044Z,14.10
2019-03-23T05:17:36.013Z,11.33
2019-03-23T05:20:09.614Z,9.03
2019-03-23T05:22:38.006Z,8.03
2019-03-23T05:25:06.840Z,7.13
2019-03-23T05:27:35.256Z,8.17
2019-03-23T05:30:05.890Z,9.33
2019-03-23T05:32:34.290Z,11.97
2019-03-23T05:35:02.939Z,13.13
2019-03-23T05:37:31.359Z,14.60
2019-03-23T05:39:59.748Z,18.77
2019-03-23T05:42:28.179Z,14.97
2019-03-23T05:44:56.567Z,12.63
2019-03-23T05:47:24.988Z,13.27
2019-03-23T05:49:53.389Z,12.93
2019-03-23T05:52:21.811Z,11.60
2019-03-23T05:54:50.189Z,12.93
2019-03-23T05:57:19.879Z,11.70
2019-03-23T05:59:48.488Z,11.43
2019-03-23T06:02:16.915Z,10.77
2019-03-23T06:04:45.310Z,8.83
2019-03-23T06:07:13.722Z,8.83
2019-03-23T06:09:42.122Z,8.30
2019-03-23T06:12:10.539Z,7.70
2019-03-23T06:14:38.931Z,8.07
2019-03-23T06:17:07.365Z,7.50
2019-03-23T06:19:35.759Z,8.00
2019-03-23T06:22:04.154Z,7.67
2019-03-23T06:24:32.551Z,8.17
2019-03-23T06:27:00.955Z,7.40
2019-03-23T06:29:29.361Z,8.03
2019-03-23T06:31:57.762Z,7.83
2019-03-23T06:34:26.164Z,7.90
2019-03-23T06:36:54.550Z,7.47
2019-03-23T06:39:22.964Z,7.83
2019-03-23T06:41:51.371Z,7.97
2019-03-23T06:44:19.770Z,7.23
2019-03-23T06:46:48.159Z,7.93
2019-03-23T06:49:16.567Z,8.07
2019-03-23T06:51:44.965Z,8.33
2019-03-23T06:54:13.370Z,8.47
2019-03-23T06:56:41.766Z,8.40
2019-03-23T06:59:10.189Z,7.70
2019-03-23T07:01:38.566Z,8.07
2019-03-23T07:04:06.970Z,8.67
2019-03-23T07:06:35.371Z,9.00
2019-03-23T07:09:04.652Z,8.67
2019-03-23T07:11:33.059Z,9.23
2019-03-23T07:14:01.478Z,12.10
2019-03-23T07:16:29.892Z,11.87
2019-03-23T07:18:58.309Z,12.63
2019-03-23T07:21:26.716Z,12.40
2019-03-23T07:23:55.152Z,12.70
2019-03-23T07:26:23.556Z,12.00
2019-03-23T07:28:51.967Z,12.60
2019-03-23T07:31:20.382Z,13.30
2019-03-23T07:33:48.799Z,13.73
2019-03-23T07:36:17.219Z,14.33
2019-03-23T07:38:45.895Z,13.57
2019-03-23T07:41:14.324Z,10.90
2019-03-23T07:43:42.736Z,11.20
2019-03-23T07:46:11.161Z,10.90
2019-03-23T07:48:39.572Z,11.80
2019-03-23T07:51:07.983Z,11.87
2019-03-23T07:53:36.390Z,12.33
2019-03-23T07:56:04.811Z,13.00
2019-03-23T07:58:33.214Z,12.40
2019-03-23T08:01:01.639Z,19.83
2019-03-23T08:03:30.047Z,14.73
2019-03-23T08:05:58.507Z,13.73
2019-03-23T08:08:26.913Z,15.37
2019-03-23T08:10:55.332Z,15.30
2019-03-23T08:13:23.783Z,17.23
2019-03-23T08:15:52.258Z,17.17
2019-03-23T08:18:20.652Z,17.37
2019-03-23T08:20:49.091Z,16.87
2019-03-23T08:23:17.479Z,16.37
2019-03-23T08:25:45.898Z,32.70
2019-03-23T08:28:14.302Z,18.23
2019-03-23T08:30:42.722Z,18.43
2019-03-23T08:33:11.131Z,18.33
2019-03-23T08:35:39.559Z,19.20
2019-03-23T08:38:07.973Z,19.07
2019-03-23T08:40:36.400Z,19.00
2019-03-23T08:43:04.805Z,20.37
2019-03-23T08:45:33.218Z,18.77
2019-03-23T08:48:01.623Z,23.47
2019-03-23T08:50:57.631Z,26.00
2019-03-23T08:53:26.034Z,20.03
2019-03-23T08:55:54.463Z,19.53
2019-03-23T08:58:27.747Z,20.93
2019-03-23T09:00:57.100Z,20.67
2019-03-23T09:03:25.510Z,22.07
2019-03-23T09:05:53.928Z,22.00
2019-03-23T09:08:22.336Z,21.70
2019-03-23T09:10:50.757Z,22.37
2019-03-23T09:13:20.020Z,22.17
2019-03-23T09:15:48.427Z,22.83
2019-03-23T09:18:16.834Z,24.33
2019-03-23T09:20:45.248Z,24.43
2019-03-23T09:23:13.654Z,24.30
2019-03-23T09:25:42.067Z,23.87
2019-03-23T09:28:10.488Z,25.00
2019-03-23T09:30:38.915Z,26.30
2019-03-23T09:33:07.344Z,25.07
2019-03-23T09:35:39.323Z,26.07
2019-03-23T09:38:05.911Z,26.67
2019-03-23T09:40:34.323Z,27.27
2019-03-23T09:43:02.730Z,25.30
2019-03-23T09:45:31.143Z,26.87
2019-03-23T09:47:59.563Z,26.60
2019-03-23T09:50:27.962Z,26.77
2019-03-23T09:52:56.381Z,26.20
2019-03-23T09:55:24.778Z,27.33
2019-03-23T09:57:53.211Z,27.57
2019-03-23T10:00:21.673Z,28.53
2019-03-23T10:02:50.091Z,33.73
2019-03-23T10:05:18.492Z,27.57
2019-03-23T10:07:46.902Z,29.07
2019-03-23T10:10:21.683Z,28.10
2019-03-23T10:12:45.474Z,28.33
2019-03-23T10:15:13.866Z,29.10
2019-03-23T10:17:42.294Z,29.77
2019-03-23T10:20:11.430Z,31.00
2019-03-23T10:22:39.858Z,31.13
2019-03-23T10:25:08.259Z,31.07
2019-03-23T10:27:36.681Z,31.43
2019-03-23T10:30:07.735Z,30.97
2019-03-23T10:32:36.139Z,30.07
2019-03-23T10:35:07.000Z,31.93
2019-03-23T10:37:35.406Z,31.67
2019-03-23T10:40:07.501Z,31.77
2019-03-23T10:42:36.116Z,30.73
2019-03-23T10:45:07.646Z,32.70
2019-03-23T10:47:36.189Z,33.23
2019-03-23T10:50:06.834Z,33.20
2019-03-23T10:52:35.234Z,34.30
2019-03-23T10:55:07.415Z,33.90
2019-03-23T10:57:35.899Z,34.57
2019-03-23T11:00:07.409Z,34.90
2019-03-23T11:02:35.816Z,35.73
2019-03-23T11:05:05.986Z,37.00
2019-03-23T11:07:34.398Z,36.97
2019-03-23T11:10:04.451Z,36.63
2019-03-23T11:12:32.855Z,35.60
2019-03-23T11:15:01.274Z,35.23
2019-03-23T11:17:29.685Z,37.00
2019-03-23T11:19:58.564Z,36.27
2019-03-23T11:22:27.086Z,36.67
2019-03-23T11:24:55.506Z,36.83
2019-03-23T11:27:23.907Z,35.53
2019-03-23T11:29:52.331Z,36.53
2019-03-23T11:32:20.731Z,34.93
2019-03-23T11:34:49.231Z,32.50
2019-03-23T11:37:17.733Z,32.23
2019-03-23T11:39:46.322Z,27.80
2019-03-23T11:42:14.742Z,33.40
2019-03-23T11:44:43.191Z,34.20
2019-03-23T11:47:11.642Z,35.20
2019-03-23T11:49:40.047Z,35.83
2019-03-23T11:52:08.473Z,35.23
2019-03-23T11:54:36.879Z,34.77
2019-03-23T11:57:05.300Z,35.50
2019-03-23T11:59:33.719Z,34.40
2019-03-23T12:02:02.138Z,35.13
2019-03-23T12:04:30.549Z,33.20
2019-03-23T12:06:58.971Z,34.03
2019-03-23T12:09:27.374Z,36.03
2019-03-23T12:11:55.812Z,35.67
2019-03-23T12:14:24.228Z,36.50
2019-03-23T12:16:52.661Z,34.70
2019-03-23T12:19:21.074Z,35.30
2019-03-23T12:21:50.844Z,34.37
2019-03-23T12:24:19.468Z,33.93
2019-03-23T12:26:47.897Z,33.67
2019-03-23T12:29:16.303Z,34.83
2019-03-23T12:31:44.723Z,33.93
2019-03-23T12:34:13.131Z,33.77
2019-03-23T12:36:41.572Z,34.97
2019-03-23T12:39:09.982Z,33.83
2019-03-23T12:41:38.389Z,33.37
2019-03-23T12:44:06.782Z,30.67
2019-03-23T12:46:35.220Z,30.13
2019-03-23T12:49:03.639Z,29.83
2019-03-23T12:51:32.040Z,30.30
2019-03-23T12:54:00.451Z,29.73
2019-03-23T12:56:28.874Z,32.27
2019-03-23T12:58:57.282Z,33.10
2019-03-23T13:01:25.710Z,32.57
2019-03-23T13:03:54.108Z,30.73
2019-03-23T13:06:22.524Z,30.63
2019-03-23T13:08:50.959Z,30.57
2019-03-23T13:11:23.370Z,30.17
2019-03-23T13:13:49.561Z,29.93
2019-03-23T13:16:17.993Z,30.23
2019-03-23T13:18:46.395Z,29.07
2019-03-23T13:21:14.834Z,29.60
2019-03-23T13:23:43.235Z,28.40
2019-03-23T13:26:11.661Z,27.43
2019-03-23T13:28:40.054Z,27.37
2019-03-23T13:31:08.487Z,27.03
2019-03-23T13:33:36.897Z,28.10
2019-03-23T13:36:07.245Z,28.23
2019-03-23T13:38:35.663Z,27.47
2019-03-23T13:41:04.080Z,27.90
2019-03-23T13:43:32.493Z,28.10
2019-03-23T13:46:00.924Z,27.27
2019-03-23T13:48:29.344Z,27.63
2019-03-23T13:50:57.758Z,26.53
2019-03-23T13:53:26.168Z,27.37
2019-03-23T13:55:54.581Z,26.70
2019-03-23T13:58:22.994Z,27.07
2019-03-23T14:00:51.399Z,28.23
2019-03-23T14:03:19.823Z,28.83
2019-03-23T14:05:48.223Z,29.70
2019-03-23T14:08:16.643Z,27.27
2019-03-23T14:10:45.051Z,28.27
2019-03-23T14:13:13.477Z,28.80
2019-03-23T14:15:41.932Z,25.90
2019-03-23T14:18:10.380Z,28.03
2019-03-23T14:20:38.853Z,29.10
2019-03-23T14:23:07.264Z,27.97
2019-03-23T14:25:35.749Z,28.40
2019-03-23T14:28:04.224Z,28.17
2019-03-23T14:30:32.643Z,26.60
2019-03-23T14:33:01.056Z,27.90
2019-03-23T14:35:29.472Z,26.20
2019-03-23T14:37:57.892Z,29.30
2019-03-23T14:40:26.323Z,30.90
2019-03-23T14:42:54.754Z,28.87
2019-03-23T14:45:23.260Z,31.27
2019-03-23T14:47:51.655Z,29.47
2019-03-23T14:50:20.076Z,27.90
2019-03-23T14:52:48.532Z,29.43
2019-03-23T14:55:16.942Z,29.63
2019-03-23T14:57:45.364Z,29.77
2019-03-23T15:00:13.859Z,30.60
2019-03-23T15:02:42.275Z,29.50
2019-03-23T15:05:10.678Z,29.67
2019-03-23T15:07:39.087Z,30.13
2019-03-23T15:10:09.447Z,31.23
2019-03-23T15:12:37.844Z,29.83
2019-03-23T15:15:07.349Z,28.60
2019-03-23T15:17:35.759Z,28.83
2019-03-23T15:20:06.015Z,32.23
2019-03-23T15:22:34.418Z,30.77
2019-03-23T15:25:03.008Z,30.20
2019-03-23T15:27:31.478Z,30.70
2019-03-23T15:29:59.919Z,34.10
2019-03-23T15:32:28.323Z,37.87
2019-03-23T15:34:56.727Z,38.53
2019-03-23T15:37:25.150Z,40.83
2019-03-23T15:39:53.549Z,38.80
2019-03-23T15:42:24.934Z,38.93
2019-03-23T15:44:52.094Z,38.87
2019-03-23T15:47:20.514Z,39.20
2019-03-23T15:49:48.919Z,39.60
2019-03-23T15:52:17.350Z,40.53
2019-03-23T15:54:45.757Z,41.10
2019-03-23T15:57:14.170Z,40.03
2019-03-23T15:59:42.571Z,42.67
2019-03-23T16:02:11.003Z,45.37
2019-03-23T16:04:39.396Z,44.30
2019-03-23T16:07:07.806Z,40.40
2019-03-23T16:09:36.202Z,42.30
2019-03-23T16:12:04.787Z,40.00
2019-03-23T16:14:33.194Z,39.10
2019-03-23T16:17:01.608Z,39.30
2019-03-23T16:19:30.031Z,43.73
2019-03-23T16:21:58.455Z,44.10
2019-03-23T16:24:26.858Z,38.90
2019-03-23T16:26:55.311Z,37.07
2019-03-23T16:29:23.710Z,36.77
2019-03-23T16:31:52.125Z,36.87
2019-03-23T16:34:20.546Z,40.23
2019-03-23T16:36:48.956Z,34.93
2019-03-23T16:39:17.358Z,33.60
2019-03-23T16:41:45.776Z,33.87
2019-03-23T16:44:14.178Z,32.83
2019-03-23T16:46:42.618Z,34.40
2019-03-23T16:49:11.018Z,33.30
2019-03-23T16:51:39.418Z,34.30
2019-03-23T16:54:07.852Z,34.50
2019-03-23T16:56:36.266Z,33.93
2019-03-23T16:59:04.686Z,33.43
2019-03-23T17:01:33.100Z,38.13
2019-03-23T17:04:01.523Z,37.53
2019-03-23T17:06:29.927Z,36.63
2019-03-23T17:08:58.347Z,35.60
2019-03-23T17:11:26.746Z,41.07
2019-03-23T17:13:55.182Z,39.03
2019-03-23T17:16:23.599Z,37.53
2019-03-23T17:18:52.013Z,35.87
2019-03-23T17:21:20.427Z,34.53
2019-03-23T17:23:48.839Z,34.50
2019-03-23T17:26:17.264Z,33.83
2019-03-23T17:28:45.690Z,35.93
2019-03-23T17:31:14.163Z,36.43
2019-03-23T17:33:42.591Z,34.80
2019-03-23T17:36:10.999Z,33.07
2019-03-23T17:38:39.462Z,36.27
2019-03-23T17:41:10.170Z,35.97
2019-03-23T17:43:38.038Z,34.33
2019-03-23T17:46:06.450Z,35.70
2019-03-23T17:48:34.870Z,35.90
2019-03-23T17:51:03.268Z,35.33
2019-03-23T17:53:31.687Z,37.07
2019-03-23T17:56:00.107Z,35.33
2019-03-23T17:58:28.510Z,36.90
2019-03-23T18:00:56.955Z,35.77
2019-03-23T18:03:25.363Z,37.67
2019-03-23T18:05:53.785Z,36.07
2019-03-23T18:08:22.208Z,35.83
2019-03-23T18:10:50.635Z,36.00
2019-03-23T18:13:19.028Z,36.83
2019-03-23T18:15:47.451Z,37.07
2019-03-23T18:18:15.852Z,36.47
2019-03-23T18:20:44.272Z,37.87
2019-03-23T18:23:12.691Z,38.17
2019-03-23T18:25:41.106Z,37.60
2019-03-23T18:28:09.574Z,37.77
2019-03-23T18:30:43.234Z,40.20
2019-03-23T18:33:11.703Z,39.17
2019-03-23T18:35:40.777Z,38.90
2019-03-23T18:38:09.171Z,41.97
2019-03-23T18:40:38.139Z,39.83
2019-03-23T18:43:06.892Z,41.97
2019-03-23T18:45:35.311Z,39.93
2019-03-23T18:48:03.951Z,40.50
2019-03-23T18:50:32.376Z,42.47
2019-03-23T18:53:00.795Z,40.90
2019-03-23T18:55:29.399Z,42.87
2019-03-23T18:57:58.265Z,43.07
2019-03-23T19:00:34.841Z,43.87
2019-03-23T19:03:03.797Z,44.47
2019-03-23T19:05:32.211Z,44.73
2019-03-23T19:08:00.703Z,43.90
2019-03-23T19:10:29.126Z,45.07
2019-03-23T19:12:57.530Z,46.37
2019-03-23T19:15:25.955Z,46.77
2019-03-23T19:17:54.367Z,48.43
2019-03-23T19:20:22.803Z,60.83
2019-03-23T19:22:51.282Z,47.23
2019-03-23T19:25:19.703Z,47.33
2019-03-23T19:27:49.256Z,47.93
2019-03-23T19:30:18.511Z,50.67
2019-03-23T19:32:46.939Z,49.03
2019-03-23T19:35:15.335Z,48.87
2019-03-23T19:37:43.759Z,50.40
2019-03-23T19:40:12.308Z,50.00
2019-03-23T19:42:40.719Z,51.37
2019-03-23T19:45:09.193Z,49.43
2019-03-23T19:47:37.631Z,48.93
2019-03-23T19:50:07.180Z,52.00
2019-03-23T19:52:35.585Z,52.30
2019-03-23T19:55:06.344Z,50.77
2019-03-23T19:57:34.750Z,51.33
2019-03-23T20:00:04.745Z,51.13
2019-03-23T20:02:33.150Z,52.20
2019-03-23T20:05:01.557Z,52.50
2019-03-23T20:07:33.240Z,53.73
2019-03-23T20:10:00.114Z,53.47
2019-03-23T20:12:28.585Z,54.47
2019-03-23T20:14:57.055Z,55.43
2019-03-23T20:17:25.606Z,56.10
2019-03-23T20:19:54.099Z,53.60
2019-03-23T20:22:22.523Z,52.60
2019-03-23T20:24:50.921Z,54.73
2019-03-23T20:27:19.368Z,53.23
2019-03-23T20:29:47.771Z,56.43
2019-03-23T20:32:16.199Z,55.93
2019-03-23T20:34:44.628Z,57.53
2019-03-23T20:37:13.033Z,54.77
2019-03-23T20:39:41.456Z,54.23
2019-03-23T20:42:09.859Z,56.07
2019-03-23T20:44:38.285Z,54.87
2019-03-23T20:47:06.921Z,55.97
2019-03-23T20:49:35.395Z,65.20
2019-03-23T20:52:03.797Z,56.10
2019-03-23T20:54:32.482Z,56.17
2019-03-23T20:57:00.907Z,54.40
2019-03-23T20:59:31.654Z,57.47
2019-03-23T21:01:59.521Z,59.60
2019-03-23T21:04:28.047Z,58.93
2019-03-23T21:06:56.450Z,54.67
2019-03-23T21:09:25.638Z,55.60
2019-03-23T21:11:54.076Z,54.07
2019-03-23T21:14:22.509Z,56.57
2019-03-23T21:16:50.958Z,56.17
2019-03-23T21:19:19.413Z,56.10
2019-03-23T21:21:50.569Z,57.43
2019-03-23T21:24:20.912Z,60.17
2019-03-23T21:26:49.314Z,59.80
2019-03-23T21:29:17.738Z,58.13
2019-03-23T21:31:46.138Z,60.37
2019-03-23T21:34:14.583Z,60.83
2019-03-23T21:36:42.974Z,62.50
2019-03-23T21:39:11.387Z,63.57
2019-03-23T21:41:39.885Z,64.60
2019-03-23T21:44:08.519Z,60.87
2019-03-23T21:46:37.023Z,57.73
2019-03-23T21:49:05.444Z,62.13
2019-03-23T21:51:33.867Z,62.43
2019-03-23T21:54:02.276Z,59.93
2019-03-23T21:56:30.692Z,60.77
2019-03-23T21:58:59.227Z,61.60
2019-03-23T22:01:27.663Z,62.97
2019-03-23T22:03:56.215Z,58.17
2019-03-23T22:06:24.955Z,58.53
2019-03-23T22:08:53.365Z,59.70
2019-03-23T22:11:21.788Z,59.87
2019-03-23T22:13:50.195Z,62.53
2019-03-23T22:16:18.611Z,64.00
2019-03-23T22:18:47.023Z,56.77
2019-03-23T22:21:15.441Z,57.97
2019-03-23T22:23:43.870Z,59.00
2019-03-23T22:26:12.340Z,61.17
2019-03-23T22:28:40.827Z,59.97
2019-03-23T22:31:09.286Z,68.83
2019-03-23T22:33:37.750Z,60.90
2019-03-23T22:36:06.176Z,68.90
2019-03-23T22:38:34.692Z,59.53
2019-03-23T22:41:03.122Z,60.93
2019-03-23T22:43:31.525Z,58.63
2019-03-23T22:45:59.939Z,54.97
2019-03-23T22:48:28.463Z,56.57
2019-03-23T22:50:56.942Z,56.67
2019-03-23T22:53:25.343Z,65.70
2019-03-23T22:55:53.777Z,89.83
2019-03-23T22:58:22.195Z,71.33
2019-03-23T23:00:51.242Z,57.47
2019-03-23T23:03:19.661Z,63.73
2019-03-23T23:05:48.090Z,72.83
2019-03-23T23:08:16.494Z,60.13
2019-03-23T23:10:45.154Z,61.07
2019-03-23T23:13:13.589Z,58.80
2019-03-23T23:15:42.046Z,59.87
2019-03-23T23:18:10.533Z,60.90
2019-03-23T23:20:38.930Z,55.43
2019-03-23T23:23:07.360Z,62.13
2019-03-23T23:25:35.767Z,62.77
2019-03-23T23:28:04.201Z,89.90
2019-03-23T23:30:32.611Z,74.50
2019-03-23T23:33:01.034Z,125.10
2019-03-23T23:35:29.443Z,104.53
2019-03-23T23:37:57.864Z,78.87
2019-03-23T23:40:26.267Z,57.17
2019-03-23T23:42:54.692Z,55.20
2019-03-23T23:45:23.094Z,53.30
2019-03-23T23:47:51.544Z,57.67
2019-03-23T23:50:20.002Z,54.87
2019-03-23T23:52:48.452Z,54.53
2019-03-23T23:55:16.851Z,54.87
2019-03-23T23:57:45.296Z,53.67
